Time;durP1;ratioP1;P1;durP2;ratioP2;P2;SDS_P1;SDS_P2;PMS_P1;PMS_P2;Temp;Humidity;BMP_temperature;BMP_pressure;BME280_temperature;BME280_humidity;BME280_pressure;Samples;Min_cycle;Max_cycle;Signal;HPM_P1;HPM_P2
2023/08/17 00:01:47;;;;;;;0.82;0.70;;;21.60;68.20;;;;;;5026095;28;20080;-78
2023/08/17 00:04:13;;;;;;;0.80;0.80;;;21.60;68.10;;;;;;5024817;28;20459;-77
2023/08/17 00:06:39;;;;;;;0.70;0.70;;;21.60;68.10;;;;;;5021372;28;20045;-77
2023/08/17 00:09:06;;;;;;;0.88;0.80;;;21.60;68.00;;;;;;5011695;28;20024;-77
2023/08/17 00:11:32;;;;;;;0.68;0.40;;;21.60;68.10;;;;;;5011968;28;20038;-78
2023/08/17 00:13:58;;;;;;;0.40;0.40;;;21.50;68.00;;;;;;5016777;28;20386;-77
2023/08/17 00:16:25;;;;;;;0.85;0.73;;;21.60;67.90;;;;;;5017131;28;20037;-78
2023/08/17 00:18:50;;;;;;;0.68;0.60;;;21.60;67.90;;;;;;5005191;28;20496;-77
2023/08/17 00:21:16;;;;;;;1.15;0.50;;;21.50;68.40;;;;;;5007375;28;20077;-76
2023/08/17 00:23:42;;;;;;;1.48;0.70;;;21.60;67.80;;;;;;5017597;28;20120;-76
2023/08/17 00:26:08;;;;;;;0.93;0.47;;;21.60;67.90;;;;;;5011825;28;20042;-78
2023/08/17 00:28:35;;;;;;;0.95;0.70;;;21.50;67.80;;;;;;5016018;28;20462;-76
2023/08/17 00:31:00;;;;;;;0.57;0.50;;;21.50;67.80;;;;;;5008526;28;20033;-75
2023/08/17 00:33:26;;;;;;;0.57;0.55;;;21.50;67.90;;;;;;5021118;28;20030;-78
2023/08/17 00:35:52;;;;;;;0.65;0.50;;;21.40;67.90;;;;;;5022666;28;20099;-77
2023/08/17 00:38:18;;;;;;;1.27;0.52;;;21.40;68.10;;;;;;5021402;28;20111;-77
2023/08/17 00:40:43;;;;;;;0.88;0.88;;;21.40;68.10;;;;;;5014056;28;20097;-77
2023/08/17 00:43:09;;;;;;;0.60;0.55;;;21.40;68.20;;;;;;5015787;28;20026;-76
2023/08/17 00:45:35;;;;;;;0.50;0.40;;;21.40;68.20;;;;;;5019172;28;20031;-75
2023/08/17 00:48:01;;;;;;;2.45;0.85;;;21.40;68.20;;;;;;5019630;28;20025;-76
2023/08/17 00:50:28;;;;;;;0.85;0.70;;;21.40;68.10;;;;;;5014690;28;20378;-76
2023/08/17 00:52:55;;;;;;;0.80;0.80;;;21.40;68.10;;;;;;5016812;28;20049;-76
2023/08/17 00:55:21;;;;;;;0.70;0.70;;;21.40;68.10;;;;;;5012930;28;20026;-76
2023/08/17 00:57:47;;;;;;;0.70;0.47;;;21.40;68.60;;;;;;5011956;28;20112;-75
2023/08/17 01:00:13;;;;;;;1.17;0.82;;;21.40;68.10;;;;;;5009872;28;20393;-76
2023/08/17 01:02:42;;;;;;;0.45;0.45;;;21.30;68.20;;;;;;5019695;28;20037;-76
2023/08/17 01:05:08;;;;;;;0.68;0.60;;;21.30;68.40;;;;;;5009496;28;20546;-75
2023/08/17 01:07:34;;;;;;;0.57;0.52;;;21.30;68.40;;;;;;5013523;28;20080;-76
2023/08/17 01:10:01;;;;;;;3.03;0.63;;;21.30;68.50;;;;;;5012622;28;20033;-75
2023/08/17 01:12:32;;;;;;;0.75;0.50;;;21.30;68.40;;;;;;5010630;28;20042;-77
2023/08/17 01:15:12;;;;;;;1.15;0.65;;;21.20;68.40;;;;;;5012220;28;20045;-77
2023/08/17 01:17:52;;;;;;;0.63;0.60;;;21.20;68.50;;;;;;5009901;28;20025;-76
2023/08/17 01:20:19;;;;;;;0.82;0.50;;;21.10;68.70;;;;;;5023009;28;20028;-76
2023/08/17 01:22:48;;;;;;;1.77;0.40;;;21.10;68.80;;;;;;5010078;28;20032;-77
2023/08/17 01:25:13;;;;;;;0.57;0.57;;;21.10;68.80;;;;;;5016260;28;20029;-77
2023/08/17 01:27:41;;;;;;;2.08;0.55;;;21.10;68.80;;;;;;5014127;28;20125;-78
2023/08/17 01:30:09;;;;;;;0.75;0.63;;;21.10;68.90;;;;;;5011443;28;20025;-75
2023/08/17 01:32:41;;;;;;;0.70;0.60;;;21.10;68.90;;;;;;5015635;28;20034;-76
2023/08/17 01:35:29;;;;;;;1.17;0.63;;;21.10;68.90;;;;;;5029355;28;20444;-75
2023/08/17 01:38:00;;;;;;;1.55;0.52;;;21.10;68.90;;;;;;5005406;28;20479;-77
2023/08/17 01:40:29;;;;;;;2.00;0.70;;;21.10;69.00;;;;;;5015160;28;20022;-76
2023/08/17 01:42:55;;;;;;;0.50;0.50;;;21.10;69.10;;;;;;5014052;28;20034;-78
2023/08/17 01:45:21;;;;;;;0.73;0.63;;;21.00;69.20;;;;;;5012177;28;20026;-78
2023/08/17 01:47:49;;;;;;;0.93;0.80;;;21.00;69.20;;;;;;5027867;28;20056;-75
2023/08/17 01:50:15;;;;;;;1.98;0.80;;;21.00;69.40;;;;;;5012234;28;20026;-75
2023/08/17 01:52:40;;;;;;;0.68;0.68;;;21.00;70.20;;;;;;5016038;28;20429;-75
2023/08/17 01:55:06;;;;;;;0.40;0.40;;;20.90;69.70;;;;;;5015344;28;20025;-76
2023/08/17 01:57:32;;;;;;;0.80;0.80;;;20.90;69.70;;;;;;5010160;28;20053;-76
2023/08/17 01:59:57;;;;;;;2.20;0.70;;;20.90;69.80;;;;;;5015066;28;20285;-76
2023/08/17 02:02:23;;;;;;;1.10;0.88;;;20.90;69.80;;;;;;5012337;28;20346;-76
2023/08/17 02:04:49;;;;;;;0.90;0.60;;;20.80;70.00;;;;;;5017146;28;20394;-77
2023/08/17 02:07:14;;;;;;;0.60;0.60;;;20.80;70.10;;;;;;5014931;28;20030;-78
2023/08/17 02:09:40;;;;;;;0.88;0.70;;;20.80;70.20;;;;;;5010228;28;20546;-76
2023/08/17 02:12:06;;;;;;;3.03;1.02;;;20.70;70.20;;;;;;5016563;28;20083;-76
2023/08/17 02:14:32;;;;;;;0.35;0.35;;;20.70;70.20;;;;;;4995186;28;20034;-76
2023/08/17 02:16:57;;;;;;;1.77;0.88;;;20.80;70.20;;;;;;5009116;28;20096;-78
2023/08/17 02:19:23;;;;;;;1.08;0.50;;;20.80;70.20;;;;;;5002315;28;20443;-78
2023/08/17 02:21:48;;;;;;;0.55;0.55;;;20.80;70.30;;;;;;5017121;28;20069;-78
2023/08/17 02:24:14;;;;;;;0.60;0.50;;;20.70;70.40;;;;;;5010251;28;20364;-76
2023/08/17 02:26:40;;;;;;;1.10;1.00;;;20.60;70.50;;;;;;5011430;28;20370;-76
2023/08/17 02:29:05;;;;;;;0.93;0.70;;;20.60;70.60;;;;;;5008227;28;20436;-76
2023/08/17 02:31:31;;;;;;;0.70;0.60;;;20.60;70.70;;;;;;5008528;28;20042;-77
2023/08/17 02:34:00;;;;;;;0.52;0.52;;;20.50;70.80;;;;;;5016432;28;20026;-78
2023/08/17 02:36:27;;;;;;;0.50;0.50;;;20.50;70.70;;;;;;5007380;28;20480;-79
2023/08/17 02:38:53;;;;;;;0.93;0.77;;;20.50;70.70;;;;;;5019438;28;20496;-78
2023/08/17 02:41:18;;;;;;;0.40;0.40;;;20.50;70.70;;;;;;5010343;28;20045;-76
2023/08/17 02:43:44;;;;;;;1.20;0.55;;;20.50;70.70;;;;;;5013246;28;20043;-76
2023/08/17 02:46:10;;;;;;;1.15;0.60;;;20.50;70.80;;;;;;5026849;28;20053;-76
2023/08/17 02:48:36;;;;;;;0.60;0.60;;;20.50;70.80;;;;;;5016685;28;20030;-77
2023/08/17 02:51:02;;;;;;;0.57;0.57;;;20.40;71.00;;;;;;5012785;28;20045;-78
2023/08/17 02:53:27;;;;;;;0.65;0.65;;;20.40;71.10;;;;;;5011427;28;20050;-79
2023/08/17 02:55:53;;;;;;;2.35;1.20;;;20.40;71.20;;;;;;5013245;28;20053;-78
2023/08/17 02:58:19;;;;;;;0.50;0.50;;;20.40;71.30;;;;;;5012000;28;20041;-78
2023/08/17 03:00:45;;;;;;;0.70;0.55;;;20.30;71.20;;;;;;5011962;28;20026;-76
2023/08/17 03:03:10;;;;;;;0.82;0.82;;;20.40;71.20;;;;;;5011214;28;20446;-78
2023/08/17 03:05:36;;;;;;;0.38;0.38;;;20.40;71.20;;;;;;5007551;28;20038;-78
2023/08/17 03:08:02;;;;;;;1.83;1.00;;;20.30;71.20;;;;;;5014557;28;20049;-78
2023/08/17 03:10:29;;;;;;;0.50;0.45;;;20.30;71.30;;;;;;5010542;28;20044;-78
2023/08/17 03:12:54;;;;;;;0.90;0.57;;;20.30;71.30;;;;;;5014159;28;20042;-76
2023/08/17 03:15:20;;;;;;;1.58;1.10;;;20.30;71.40;;;;;;4995491;28;20026;-76
2023/08/17 03:17:46;;;;;;;9.38;0.98;;;20.20;71.40;;;;;;5011349;28;20117;-78
2023/08/17 03:20:12;;;;;;;0.98;0.50;;;20.20;71.50;;;;;;5018845;28;20025;-78
2023/08/17 03:22:37;;;;;;;0.60;0.60;;;20.20;71.50;;;;;;5010446;28;20108;-78
2023/08/17 03:25:03;;;;;;;0.45;0.45;;;20.20;71.50;;;;;;5009084;28;20034;-79
2023/08/17 03:27:29;;;;;;;2.30;0.80;;;20.10;71.70;;;;;;5016576;28;20037;-76
2023/08/17 03:29:55;;;;;;;1.05;0.70;;;20.10;71.60;;;;;;5014191;28;20034;-75
2023/08/17 03:32:21;;;;;;;0.98;0.75;;;20.00;71.90;;;;;;5004465;28;20037;-75
2023/08/17 03:34:47;;;;;;;3.35;0.60;;;19.90;72.00;;;;;;4996644;28;20126;-76
2023/08/17 03:37:12;;;;;;;0.45;0.45;;;19.90;72.00;;;;;;5025660;28;20272;-75
2023/08/17 03:39:38;;;;;;;2.00;0.88;;;19.90;72.00;;;;;;5016976;28;20084;-78
2023/08/17 03:42:04;;;;;;;1.45;1.10;;;19.80;72.20;;;;;;5013670;28;20033;-76
2023/08/17 03:44:29;;;;;;;0.50;0.50;;;19.80;72.30;;;;;;5016666;28;20042;-75
2023/08/17 03:46:55;;;;;;;1.30;0.85;;;19.70;72.40;;;;;;5008193;28;20060;-75
2023/08/17 03:49:21;;;;;;;0.73;0.50;;;19.70;72.80;;;;;;5010531;28;20026;-78
2023/08/17 03:51:47;;;;;;;1.08;0.98;;;19.70;72.80;;;;;;5017957;28;20088;-78
2023/08/17 03:54:13;;;;;;;0.77;0.77;;;19.70;72.80;;;;;;5012846;28;20032;-77
2023/08/17 03:56:38;;;;;;;1.17;0.80;;;19.60;72.90;;;;;;5011353;28;20042;-77
2023/08/17 03:59:04;;;;;;;0.60;0.60;;;19.60;73.00;;;;;;5017633;28;20080;-77
2023/08/17 04:01:30;;;;;;;1.38;0.77;;;19.60;73.00;;;;;;5014766;28;20906;-77
2023/08/17 04:03:56;;;;;;;0.88;0.70;;;19.60;73.00;;;;;;5008809;28;20109;-77
2023/08/17 04:06:22;;;;;;;0.63;0.63;;;19.50;73.10;;;;;;5016184;28;20026;-75
2023/08/17 04:08:48;;;;;;;2.17;0.82;;;19.50;73.30;;;;;;5016554;28;20062;-75
2023/08/17 04:11:13;;;;;;;10.80;1.42;;;19.50;73.30;;;;;;5013367;28;20108;-75
2023/08/17 04:13:39;;;;;;;1.10;0.57;;;19.50;73.40;;;;;;5002462;28;20033;-78
2023/08/17 04:16:05;;;;;;;0.98;0.93;;;19.50;73.40;;;;;;5018366;28;20057;-77
2023/08/17 04:18:31;;;;;;;0.57;0.52;;;19.40;73.40;;;;;;5018302;28;20079;-75
2023/08/17 04:20:56;;;;;;;1.95;0.73;;;19.40;73.40;;;;;;5021215;28;20025;-78
2023/08/17 04:23:22;;;;;;;1.55;0.52;;;19.40;73.60;;;;;;5016029;28;20044;-77
2023/08/17 04:25:48;;;;;;;0.45;0.45;;;19.40;73.70;;;;;;5004316;28;20027;-75
2023/08/17 04:28:14;;;;;;;1.25;0.52;;;19.40;73.70;;;;;;5008077;28;20026;-76
2023/08/17 04:30:40;;;;;;;0.50;0.50;;;19.40;73.70;;;;;;5013019;28;20033;-76
2023/08/17 04:33:07;;;;;;;0.90;0.70;;;19.40;73.60;;;;;;5018211;28;20057;-76
2023/08/17 04:35:33;;;;;;;0.63;0.63;;;19.40;73.70;;;;;;5022010;28;20131;-76
2023/08/17 04:37:59;;;;;;;1.15;0.80;;;19.40;73.70;;;;;;5016826;28;20050;-77
2023/08/17 04:40:25;;;;;;;1.30;0.50;;;19.40;73.70;;;;;;5011760;28;20065;-76
2023/08/17 04:42:51;;;;;;;0.93;0.68;;;19.40;73.60;;;;;;5011468;28;20501;-77
2023/08/17 04:45:17;;;;;;;0.85;0.52;;;19.50;73.60;;;;;;5012537;28;20048;-77
2023/08/17 04:47:42;;;;;;;1.08;0.98;;;19.50;73.50;;;;;;5014970;28;20025;-77
2023/08/17 04:50:08;;;;;;;1.35;0.73;;;19.40;73.60;;;;;;5020225;28;20033;-78
2023/08/17 04:52:34;;;;;;;1.58;0.50;;;19.40;73.60;;;;;;5033020;28;20077;-77
2023/08/17 04:55:00;;;;;;;1.10;0.80;;;19.50;73.60;;;;;;5019785;28;20049;-77
2023/08/17 04:57:27;;;;;;;1.23;0.52;;;19.50;73.60;;;;;;5027400;28;20053;-77
2023/08/17 04:59:53;;;;;;;4.85;0.80;;;19.50;73.60;;;;;;5012943;28;20026;-77
2023/08/17 05:02:19;;;;;;;2.33;0.55;;;19.50;73.50;;;;;;5015210;28;20033;-76
2023/08/17 05:04:46;;;;;;;0.80;0.77;;;19.50;73.60;;;;;;5031451;28;20034;-76
2023/08/17 05:07:12;;;;;;;2.28;0.68;;;19.50;73.50;;;;;;5012689;28;20060;-76
2023/08/17 05:09:37;;;;;;;1.92;0.98;;;19.60;73.50;;;;;;5013296;28;20089;-76
2023/08/17 05:12:03;;;;;;;0.88;0.65;;;19.50;73.60;;;;;;4999906;28;20034;-76
2023/08/17 05:14:29;;;;;;;0.60;0.50;;;19.50;73.60;;;;;;5011779;28;20489;-75
2023/08/17 05:16:55;;;;;;;0.70;0.70;;;19.60;73.60;;;;;;5008719;28;20026;-74
2023/08/17 05:19:20;;;;;;;1.08;0.60;;;19.60;73.50;;;;;;5010967;28;20034;-75
2023/08/17 05:21:48;;;;;;;0.35;0.35;;;19.60;73.40;;;;;;5017529;28;20128;-74
2023/08/17 05:24:14;;;;;;;0.68;0.40;;;19.70;73.30;;;;;;5010296;28;20029;-74
2023/08/17 05:26:40;;;;;;;0.88;0.60;;;19.70;73.20;;;;;;5010699;28;20511;-76
2023/08/17 05:29:05;;;;;;;0.70;0.65;;;19.80;73.20;;;;;;5008854;28;20078;-76
2023/08/17 05:31:31;;;;;;;2.03;0.88;;;19.80;73.20;;;;;;5026072;28;20030;-76
2023/08/17 05:33:57;;;;;;;0.50;0.50;;;19.80;73.10;;;;;;5006971;28;20436;-74
2023/08/17 05:36:23;;;;;;;0.30;0.30;;;19.90;73.10;;;;;;5007641;28;20133;-74
2023/08/17 05:38:48;;;;;;;0.70;0.57;;;19.90;73.10;;;;;;5009494;28;20033;-74
2023/08/17 05:41:15;;;;;;;0.93;0.80;;;19.90;73.00;;;;;;5013276;28;20033;-74
2023/08/17 05:43:41;;;;;;;0.60;0.60;;;20.00;73.00;;;;;;5017385;28;20053;-74
2023/08/17 05:46:06;;;;;;;2.25;0.60;;;20.10;72.80;;;;;;5007971;28;20054;-74
2023/08/17 05:48:32;;;;;;;0.75;0.60;;;20.10;72.60;;;;;;5009549;28;20037;-74
2023/08/17 05:50:58;;;;;;;0.70;0.60;;;20.10;72.50;;;;;;5010084;28;20089;-76
2023/08/17 05:53:24;;;;;;;0.70;0.70;;;20.10;72.40;;;;;;5012150;28;20485;-74
2023/08/17 05:55:50;;;;;;;0.95;0.50;;;20.20;72.40;;;;;;5015325;28;20034;-74
2023/08/17 05:58:15;;;;;;;0.65;0.50;;;20.20;72.40;;;;;;5025983;28;20338;-76
2023/08/17 06:00:41;;;;;;;1.17;0.90;;;20.20;72.40;;;;;;5014704;28;20041;-76
2023/08/17 06:03:07;;;;;;;0.40;0.40;;;20.10;72.40;;;;;;5011891;28;20034;-76
2023/08/17 06:05:33;;;;;;;2.08;0.80;;;20.10;72.50;;;;;;5010787;28;20034;-76
2023/08/17 06:07:59;;;;;;;0.57;0.57;;;20.10;72.60;;;;;;5010801;28;20045;-76
2023/08/17 06:10:25;;;;;;;0.60;0.60;;;20.00;72.70;;;;;;5018706;28;20057;-77
2023/08/17 06:12:53;;;;;;;0.40;0.40;;;20.00;72.70;;;;;;5011014;28;20038;-76
2023/08/17 06:15:19;;;;;;;0.68;0.68;;;20.00;72.70;;;;;;5010538;28;20080;-76
2023/08/17 06:17:44;;;;;;;0.60;0.60;;;19.90;72.70;;;;;;5008576;28;20026;-76
2023/08/17 06:20:11;;;;;;;1.13;1.02;;;19.90;72.80;;;;;;5013443;28;20025;-75
2023/08/17 06:22:37;;;;;;;4.13;0.57;;;19.90;72.90;;;;;;5008769;28;20069;-75
2023/08/17 06:25:05;;;;;;;1.95;0.50;;;19.90;72.90;;;;;;4992348;28;20080;-75
2023/08/17 06:27:30;;;;;;;0.98;0.60;;;19.90;72.80;;;;;;5011755;28;20052;-75
2023/08/17 06:29:56;;;;;;;0.47;0.47;;;19.90;73.00;;;;;;5008316;28;20112;-78
2023/08/17 06:32:22;;;;;;;1.15;0.60;;;19.90;72.90;;;;;;5015477;28;20041;-78
2023/08/17 06:34:47;;;;;;;0.50;0.50;;;19.90;72.90;;;;;;5016538;28;20038;-77
2023/08/17 06:37:13;;;;;;;3.20;0.52;;;19.90;72.90;;;;;;5018436;28;20408;-77
2023/08/17 06:39:39;;;;;;;0.85;0.73;;;19.90;72.90;;;;;;5007940;28;20088;-78
2023/08/17 06:42:05;;;;;;;0.30;0.30;;;20.00;73.00;;;;;;5009154;28;20401;-78
2023/08/17 06:44:31;;;;;;;1.02;0.40;;;20.00;73.10;;;;;;5011906;28;20447;-75
2023/08/17 06:46:58;;;;;;;0.57;0.57;;;20.10;73.00;;;;;;5022521;28;20033;-75
2023/08/17 06:49:24;;;;;;;2.53;0.70;;;20.10;73.00;;;;;;4993797;28;20450;-75
2023/08/17 06:51:50;;;;;;;0.80;0.80;;;20.10;72.90;;;;;;5014030;28;20037;-75
2023/08/17 06:54:16;;;;;;;0.82;0.80;;;20.10;72.90;;;;;;5009833;28;20038;-75
2023/08/17 06:56:41;;;;;;;0.55;0.55;;;20.20;73.00;;;;;;5015372;28;20045;-75
2023/08/17 06:59:07;;;;;;;1.75;0.65;;;20.30;73.00;;;;;;5007575;28;20029;-75
2023/08/17 07:01:33;;;;;;;0.70;0.70;;;20.30;72.90;;;;;;5013062;28;20117;-76
2023/08/17 07:03:58;;;;;;;0.60;0.52;;;20.40;72.70;;;;;;5013508;28;20345;-74
2023/08/17 07:06:25;;;;;;;0.63;0.63;;;20.50;72.60;;;;;;5009001;28;20041;-69
2023/08/17 07:08:52;;;;;;;1.75;1.35;;;20.50;72.60;;;;;;5015910;28;20118;-72
2023/08/17 07:11:18;;;;;;;2.42;1.05;;;20.50;72.60;;;;;;5018824;28;20125;-72
2023/08/17 07:13:44;;;;;;;0.50;0.50;;;20.50;72.60;;;;;;5013678;28;20024;-71
2023/08/17 07:16:10;;;;;;;0.30;0.30;;;20.60;72.60;;;;;;5019390;28;20478;-73
2023/08/17 07:18:35;;;;;;;1.10;0.73;;;20.60;72.60;;;;;;5013000;28;20022;-76
2023/08/17 07:21:01;;;;;;;0.68;0.50;;;20.60;72.50;;;;;;5014885;28;20021;-73
2023/08/17 07:23:27;;;;;;;0.40;0.40;;;20.60;72.50;;;;;;5011982;28;20482;-75
2023/08/17 07:25:53;;;;;;;2.78;0.93;;;20.70;72.40;;;;;;5011901;28;20034;-72
2023/08/17 07:28:18;;;;;;;0.63;0.63;;;20.70;72.40;;;;;;5019821;28;20033;-74
2023/08/17 07:30:44;;;;;;;1.70;1.15;;;20.80;72.40;;;;;;5011554;28;20062;-75
2023/08/17 07:33:10;;;;;;;0.45;0.45;;;20.70;72.20;;;;;;5013155;28;20062;-75
2023/08/17 07:35:36;;;;;;;0.43;0.40;;;20.80;72.20;;;;;;5015353;28;20037;-73
2023/08/17 07:38:02;;;;;;;0.75;0.40;;;20.80;72.20;;;;;;5012599;28;20168;-74
2023/08/17 07:40:27;;;;;;;1.27;0.45;;;20.90;72.10;;;;;;5021194;28;20041;-78
2023/08/17 07:42:53;;;;;;;0.52;0.45;;;20.90;72.10;;;;;;5006856;28;20158;-78
2023/08/17 07:45:19;;;;;;;1.05;0.60;;;21.00;72.20;;;;;;4995523;28;20049;-78
2023/08/17 07:47:44;;;;;;;0.73;0.55;;;21.00;72.00;;;;;;5002822;28;20068;-75
2023/08/17 07:50:10;;;;;;;0.57;0.57;;;21.00;71.90;;;;;;5006706;28;20041;-74
2023/08/17 07:52:36;;;;;;;1.08;0.98;;;21.00;72.00;;;;;;5005176;28;20056;-74
2023/08/17 07:55:03;;;;;;;1.33;0.93;;;21.10;72.10;;;;;;5001689;28;20042;-74
2023/08/17 07:57:28;;;;;;;0.95;0.70;;;21.00;71.90;;;;;;4996992;28;20026;-77
2023/08/17 07:59:54;;;;;;;0.98;0.57;;;21.00;71.90;;;;;;5007323;28;20029;-77
2023/08/17 08:02:20;;;;;;;1.42;0.80;;;21.00;72.00;;;;;;5002224;28;20949;-76
2023/08/17 08:04:46;;;;;;;0.82;0.40;;;21.00;72.00;;;;;;5006153;28;20037;-76
2023/08/17 08:07:11;;;;;;;1.63;0.73;;;21.00;72.20;;;;;;5017249;28;20773;-74
2023/08/17 08:09:37;;;;;;;0.77;0.77;;;20.90;72.10;;;;;;5019167;28;20285;-73
2023/08/17 08:12:03;;;;;;;1.10;0.80;;;20.80;72.10;;;;;;4986231;28;20049;-74
2023/08/17 08:14:29;;;;;;;0.90;0.75;;;20.80;72.20;;;;;;4999942;28;20041;-73
2023/08/17 08:16:55;;;;;;;2.05;0.65;;;20.80;72.20;;;;;;5001084;28;20034;-76
2023/08/17 08:19:20;;;;;;;0.85;0.80;;;20.80;72.30;;;;;;5001878;28;20032;-76
2023/08/17 08:21:46;;;;;;;0.45;0.45;;;20.80;72.30;;;;;;5005261;28;20481;-76
2023/08/17 08:24:12;;;;;;;0.47;0.47;;;20.90;72.30;;;;;;5002273;28;20034;-75
2023/08/17 08:26:38;;;;;;;0.50;0.35;;;20.90;72.20;;;;;;5000962;28;20536;-72
2023/08/17 08:29:04;;;;;;;0.55;0.50;;;21.00;72.10;;;;;;5010407;28;20121;-74
2023/08/17 08:31:29;;;;;;;0.52;0.40;;;21.00;72.00;;;;;;4989977;28;20048;-75
2023/08/17 08:33:55;;;;;;;1.08;0.70;;;21.00;72.00;;;;;;5009531;28;20022;-75
2023/08/17 08:36:21;;;;;;;1.00;0.88;;;21.00;72.20;;;;;;5008397;28;20045;-74
2023/08/17 08:38:47;;;;;;;0.60;0.60;;;21.00;72.20;;;;;;5008215;28;20117;-75
2023/08/17 08:41:12;;;;;;;0.77;0.77;;;21.00;72.30;;;;;;4997449;28;20029;-73
2023/08/17 08:43:41;;;;;;;0.82;0.80;;;21.00;72.20;;;;;;5016263;28;20025;-73
2023/08/17 08:46:07;;;;;;;1.13;1.00;;;21.10;72.20;;;;;;5009688;28;20022;-77
2023/08/17 08:48:34;;;;;;;1.02;0.80;;;21.10;72.10;;;;;;5008043;28;20029;-76
2023/08/17 08:51:00;;;;;;;1.15;1.05;;;21.20;72.10;;;;;;5001367;28;20095;-77
2023/08/17 08:53:42;;;;;;;0.73;0.73;;;21.20;72.00;;;;;;5006699;28;20018;-76
2023/08/17 08:56:12;;;;;;;1.05;0.77;;;21.20;72.00;;;;;;5006371;28;20053;-76
2023/08/17 08:58:40;;;;;;;1.33;0.93;;;21.20;71.90;;;;;;5006745;28;20025;-76
2023/08/17 09:01:08;;;;;;;2.33;1.20;;;21.20;71.80;;;;;;5007668;28;20440;-76
2023/08/17 09:03:35;;;;;;;1.65;1.00;;;21.20;71.90;;;;;;5007430;28;20501;-77
2023/08/17 09:06:01;;;;;;;2.40;0.82;;;21.30;71.80;;;;;;4989366;28;20055;-77
2023/08/17 09:08:29;;;;;;;3.22;1.38;;;21.40;71.70;;;;;;5004669;28;20021;-77
2023/08/17 09:10:55;;;;;;;0.82;0.80;;;21.40;71.70;;;;;;5007100;28;20045;-77
2023/08/17 09:13:20;;;;;;;1.42;0.93;;;21.40;71.70;;;;;;5009657;28;20065;-76
2023/08/17 09:15:46;;;;;;;1.13;0.95;;;21.50;71.50;;;;;;4995238;28;20040;-77
2023/08/17 09:18:12;;;;;;;1.52;1.10;;;21.60;71.50;;;;;;4985728;28;20489;-80
2023/08/17 09:20:44;;;;;;;2.75;1.27;;;21.80;71.40;;;;;;5004440;28;20113;-79
2023/08/17 09:23:22;;;;;;;1.23;1.13;;;21.80;71.10;;;;;;5010507;28;20030;-80
2023/08/17 09:25:49;;;;;;;1.98;1.00;;;21.90;70.90;;;;;;5012515;28;20416;-74
2023/08/17 09:28:17;;;;;;;3.13;1.00;;;21.90;70.90;;;;;;5004379;28;20037;-75
2023/08/17 09:30:51;;;;;;;2.92;1.38;;;21.90;70.80;;;;;;5007332;28;20044;-75
2023/08/17 09:33:16;;;;;;;1.58;0.98;;;21.90;70.90;;;;;;5007847;28;20042;-80
2023/08/17 09:35:43;;;;;;;0.80;0.80;;;21.90;70.80;;;;;;5024849;28;20061;-79
2023/08/17 09:38:09;;;;;;;4.78;1.33;;;21.90;70.90;;;;;;4988176;28;20022;-75
2023/08/17 09:40:35;;;;;;;1.80;1.10;;;22.00;71.00;;;;;;5005490;28;20397;-75
2023/08/17 09:43:02;;;;;;;1.10;1.00;;;22.10;70.90;;;;;;5006568;28;20524;-77
2023/08/17 09:45:28;;;;;;;1.60;1.02;;;22.10;70.90;;;;;;5009976;28;20065;-75
2023/08/17 09:47:55;;;;;;;1.20;0.90;;;22.00;70.80;;;;;;5004219;28;20037;-77
2023/08/17 09:50:25;;;;;;;2.80;1.73;;;22.00;70.80;;;;;;4999618;28;21064;-77
2023/08/17 09:52:54;;;;;;;1.40;0.70;;;22.00;70.80;;;;;;5000198;28;20034;-78
2023/08/17 09:55:23;;;;;;;2.42;1.25;;;22.00;70.80;;;;;;5007190;28;20033;-77
2023/08/17 09:57:52;;;;;;;1.85;1.05;;;22.00;70.90;;;;;;5003402;28;20037;-78
2023/08/17 10:00:20;;;;;;;1.23;1.13;;;22.10;71.00;;;;;;5004594;28;20493;-78
2023/08/17 10:02:51;;;;;;;1.15;1.05;;;22.10;71.00;;;;;;5020097;28;20400;-78
2023/08/17 10:05:19;;;;;;;1.50;0.90;;;22.20;71.00;;;;;;5021462;28;20038;-78
2023/08/17 10:07:50;;;;;;;1.73;1.08;;;22.20;71.00;;;;;;5004777;28;20453;-78
2023/08/17 10:10:23;;;;;;;1.77;1.08;;;22.20;70.90;;;;;;5003724;28;20164;-78
2023/08/17 10:13:00;;;;;;;1.17;0.80;;;22.20;70.90;;;;;;5005394;28;20069;-78
2023/08/17 10:15:30;;;;;;;0.88;0.85;;;22.20;70.90;;;;;;5003655;28;20014;-78
2023/08/17 10:17:58;;;;;;;0.90;0.90;;;22.20;71.10;;;;;;5007314;28;20026;-77
2023/08/17 10:20:28;;;;;;;1.73;1.15;;;22.20;71.10;;;;;;5006314;28;20022;-77
2023/08/17 10:23:07;;;;;;;1.02;0.90;;;22.20;71.20;;;;;;5023781;28;20037;-77
2023/08/17 10:25:34;;;;;;;1.60;1.05;;;22.20;71.10;;;;;;5008227;28;20045;-78
2023/08/17 10:28:03;;;;;;;2.45;1.00;;;22.10;71.10;;;;;;5002985;28;20037;-77
2023/08/17 10:30:29;;;;;;;3.22;1.10;;;22.10;71.20;;;;;;5004360;28;20065;-77
2023/08/17 10:32:56;;;;;;;2.90;0.90;;;22.00;71.30;;;;;;5002248;28;20125;-77
2023/08/17 10:35:22;;;;;;;1.27;1.10;;;22.00;71.40;;;;;;5006981;28;20057;-76
2023/08/17 10:37:48;;;;;;;1.30;0.90;;;21.90;71.40;;;;;;4987618;28;20026;-77
2023/08/17 10:40:14;;;;;;;1.98;1.48;;;21.90;71.50;;;;;;5018832;28;20034;-76
2023/08/17 10:42:40;;;;;;;2.83;1.52;;;21.90;71.50;;;;;;5002983;28;20034;-76
2023/08/17 10:45:25;;;;;;;4.10;1.80;;;22.00;71.50;;;;;;5010611;28;20033;-74
2023/08/17 10:48:00;;;;;;;1.30;1.20;;;22.00;71.50;;;;;;5005907;28;20119;-73
2023/08/17 10:50:26;;;;;;;3.65;1.55;;;22.00;71.50;;;;;;5005277;28;20520;-73
2023/08/17 10:52:54;;;;;;;1.45;0.90;;;22.00;71.60;;;;;;4999007;28;20038;-70
2023/08/17 10:55:44;;;;;;;1.40;1.25;;;22.00;71.50;;;;;;5006785;28;20033;-71
2023/08/17 10:58:11;;;;;;;1.60;1.20;;;22.10;71.50;;;;;;5003164;28;20036;-71
2023/08/17 11:00:38;;;;;;;2.50;0.95;;;22.10;71.40;;;;;;5003845;28;20470;-72
2023/08/17 11:03:12;;;;;;;1.75;1.00;;;22.20;71.50;;;;;;5003399;28;20041;-71
2023/08/17 11:05:44;;;;;;;3.03;1.77;;;22.20;71.40;;;;;;5009133;28;20037;-72
2023/08/17 11:08:11;;;;;;;;;;;22.20;71.40;;;;;;5009915;28;20037;-71
2023/08/17 11:10:38;;;;;;;1.10;1.00;;;22.20;71.60;;;;;;5002127;28;20003;-72
2023/08/17 11:13:04;;;;;;;2.00;1.25;;;22.10;71.60;;;;;;5006381;28;20034;-72
2023/08/17 11:15:44;;;;;;;1.42;1.33;;;22.20;71.60;;;;;;5005564;28;20073;-74
2023/08/17 11:18:12;;;;;;;1.52;0.95;;;22.20;71.40;;;;;;5005267;28;20041;-73
2023/08/17 11:20:39;;;;;;;1.45;1.00;;;22.30;71.30;;;;;;5006641;28;20389;-74
2023/08/17 11:23:06;;;;;;;1.35;1.25;;;22.40;71.10;;;;;;5003181;28;20033;-74
2023/08/17 11:25:32;;;;;;;1.45;1.10;;;22.30;71.30;;;;;;5007695;28;20029;-74
2023/08/17 11:27:59;;;;;;;2.80;1.33;;;22.30;71.40;;;;;;5002410;28;20048;-73
2023/08/17 11:30:27;;;;;;;1.73;1.58;;;22.30;71.50;;;;;;5010081;28;20160;-74
2023/08/17 11:32:54;;;;;;;1.58;1.08;;;22.30;71.50;;;;;;5005674;28;20473;-73
2023/08/17 11:35:20;;;;;;;0.80;0.80;;;22.40;71.50;;;;;;5007618;28;20549;-74
2023/08/17 11:37:48;;;;;;;1.15;0.82;;;22.50;71.30;;;;;;5004046;28;20022;-70
2023/08/17 11:40:14;;;;;;;1.63;1.35;;;22.50;71.10;;;;;;5013743;28;20119;-70
2023/08/17 11:42:41;;;;;;;1.50;0.85;;;22.60;71.10;;;;;;5009413;28;20038;-73
2023/08/17 11:45:10;;;;;;;1.60;1.02;;;22.60;71.10;;;;;;5013697;28;20030;-72
2023/08/17 11:47:37;;;;;;;1.13;0.93;;;22.60;71.10;;;;;;5001312;28;20543;-74
2023/08/17 11:50:04;;;;;;;0.73;0.73;;;22.60;71.20;;;;;;5014959;28;20026;-72
2023/08/17 11:52:33;;;;;;;2.08;1.35;;;22.60;71.30;;;;;;5018971;28;20042;-72
2023/08/17 11:55:00;;;;;;;0.70;0.70;;;22.50;71.30;;;;;;5009633;28;20025;-72
2023/08/17 11:57:26;;;;;;;1.38;0.93;;;22.50;71.50;;;;;;5012767;28;20034;-73
2023/08/17 11:59:56;;;;;;;1.58;1.10;;;22.50;71.60;;;;;;5018261;28;20044;-72
2023/08/17 12:02:24;;;;;;;2.15;1.20;;;22.40;71.70;;;;;;5012288;28;20477;-72
2023/08/17 12:04:50;;;;;;;1.25;0.98;;;22.40;71.70;;;;;;5006201;28;20132;-74
2023/08/17 12:07:17;;;;;;;1.05;0.90;;;22.40;71.60;;;;;;5015187;28;20041;-72
2023/08/17 12:09:44;;;;;;;3.53;0.93;;;22.40;71.80;;;;;;5011064;28;20022;-73
2023/08/17 12:12:10;;;;;;;2.65;0.98;;;22.30;71.80;;;;;;5009982;28;20115;-72
2023/08/17 12:14:36;;;;;;;2.40;1.30;;;22.30;71.90;;;;;;5009809;28;20097;-75
2023/08/17 12:17:02;;;;;;;2.38;1.20;;;22.30;71.90;;;;;;5011356;28;20033;-75
2023/08/17 12:19:29;;;;;;;1.00;0.90;;;22.30;72.00;;;;;;5007473;28;20336;-75
2023/08/17 12:21:57;;;;;;;2.53;1.70;;;22.40;72.00;;;;;;5000752;28;20480;-74
2023/08/17 12:24:26;;;;;;;3.72;1.38;;;22.40;71.90;;;;;;5018852;28;20041;-74
2023/08/17 12:26:52;;;;;;;1.80;1.23;;;22.40;71.90;;;;;;5012015;28;20033;-74
2023/08/17 12:29:17;;;;;;;1.88;1.40;;;22.50;71.80;;;;;;5011382;28;20046;-73
2023/08/17 12:31:44;;;;;;;1.50;1.10;;;22.50;71.80;;;;;;5010133;28;20034;-74
2023/08/17 12:34:09;;;;;;;1.33;0.98;;;22.60;71.70;;;;;;4996188;28;20026;-74
2023/08/17 12:36:37;;;;;;;1.05;1.05;;;22.60;71.60;;;;;;5010587;28;20121;-74
2023/08/17 12:39:03;;;;;;;1.05;0.98;;;22.70;71.60;;;;;;5011216;28;20096;-74
2023/08/17 12:41:29;;;;;;;1.70;1.23;;;22.70;71.50;;;;;;5012489;28;20029;-74
2023/08/17 12:43:58;;;;;;;1.23;0.90;;;22.70;71.40;;;;;;5015417;28;20026;-74
2023/08/17 12:46:24;;;;;;;1.55;1.45;;;22.70;71.50;;;;;;4990821;28;20034;-74